Time;durP1;ratioP1;P1;durP2;ratioP2;P2;SDS_P1;SDS_P2;PMS_P1;PMS_P2;Temp;Humidity;BMP_temperature;BMP_pressure;BME280_temperature;BME280_humidity;BME280_pressure;Samples;Min_cycle;Max_cycle;Signal;HPM_P1;HPM_P2
2021/12/31 00:02:13;;;;;;;18.08;4.80;;;;;;;12.33;100.00;101642.81;5072331;28;20114;-71
2021/12/31 00:04:38;;;;;;;17.60;4.70;;;;;;;12.36;100.00;101642.84;5072535;28;20070;-71
2021/12/31 00:07:03;;;;;;;17.98;4.65;;;;;;;12.29;100.00;101644.56;5072335;28;20027;-72
2021/12/31 00:09:29;;;;;;;20.42;5.10;;;;;;;12.29;100.00;101652.50;5072428;28;20477;-71
2021/12/31 00:11:54;;;;;;;18.60;5.20;;;;;;;12.30;100.00;101648.09;5072592;28;20682;-71
2021/12/31 00:14:20;;;;;;;18.42;4.68;;;;;;;12.30;100.00;101638.34;5072114;28;20029;-71
2021/12/31 00:16:46;;;;;;;18.88;4.70;;;;;;;12.32;100.00;101643.66;5073198;28;20021;-71
2021/12/31 00:19:13;;;;;;;19.45;5.20;;;;;;;12.31;100.00;101641.91;5076697;28;20489;-72
2021/12/31 00:21:41;;;;;;;20.75;5.03;;;;;;;12.31;100.00;101649.88;5076451;28;20028;-72
2021/12/31 00:24:06;;;;;;;18.13;5.00;;;;;;;12.40;100.00;101641.13;5076035;28;20036;-71
2021/12/31 00:26:32;;;;;;;17.58;4.70;;;;;;;12.48;100.00;101640.31;5076025;28;20067;-71
2021/12/31 00:28:57;;;;;;;17.65;4.45;;;;;;;12.56;100.00;101648.34;5075955;28;20119;-72
2021/12/31 00:31:22;;;;;;;17.50;4.60;;;;;;;12.49;100.00;101654.44;5076206;28;20092;-71
2021/12/31 00:33:49;;;;;;;19.88;4.80;;;;;;;12.49;100.00;101663.28;5075846;28;20025;-71
2021/12/31 00:36:15;;;;;;;18.67;4.60;;;;;;;12.51;100.00;101656.25;5075820;28;20027;-71
2021/12/31 00:38:40;;;;;;;18.73;4.70;;;;;;;12.50;100.00;101645.63;5075951;28;20028;-71
2021/12/31 00:41:06;;;;;;;16.83;4.47;;;;;;;12.49;100.00;101650.03;5075666;28;20078;-71
2021/12/31 00:43:31;;;;;;;18.23;4.72;;;;;;;12.44;100.00;101646.47;5075658;28;20036;-71
2021/12/31 00:45:56;;;;;;;17.52;4.53;;;;;;;12.46;100.00;101642.03;5074865;28;20032;-72
2021/12/31 00:48:21;;;;;;;18.02;4.60;;;;;;;12.51;100.00;101645.66;5075597;28;20028;-72
2021/12/31 00:50:47;;;;;;;17.55;4.40;;;;;;;12.52;100.00;101649.16;5075843;28;20032;-71
2021/12/31 00:53:12;;;;;;;16.42;4.38;;;;;;;12.54;100.00;101643.00;5075723;28;20024;-73
2021/12/31 00:55:38;;;;;;;18.60;4.40;;;;;;;12.56;100.00;101641.25;5075475;28;20035;-72
2021/12/31 00:58:04;;;;;;;18.55;4.30;;;;;;;12.58;100.00;101651.00;5075703;28;20028;-71
2021/12/31 01:00:29;;;;;;;17.33;4.25;;;;;;;12.59;100.00;101652.78;5075702;28;20028;-73
2021/12/31 01:02:55;;;;;;;17.45;4.40;;;;;;;12.60;100.00;101643.97;5075614;28;20353;-72
2021/12/31 01:05:20;;;;;;;20.20;4.70;;;;;;;12.62;100.00;101659.00;5075520;28;20060;-73
2021/12/31 01:07:46;;;;;;;19.48;4.40;;;;;;;12.62;100.00;101647.50;5075304;28;20491;-73
2021/12/31 01:10:15;;;;;;;15.38;4.18;;;;;;;12.62;100.00;101650.16;5075420;28;20016;-74
2021/12/31 01:12:41;;;;;;;16.77;4.43;;;;;;;12.61;100.00;101664.28;5075140;28;20028;-72
2021/12/31 01:15:11;;;;;;;20.08;4.13;;;;;;;12.64;100.00;101661.66;5075324;28;20063;-72
2021/12/31 01:17:47;;;;;;;19.42;4.25;;;;;;;12.62;100.00;101648.38;5075264;28;20066;-73
2021/12/31 01:20:15;;;;;;;16.02;4.38;;;;;;;12.54;100.00;101648.31;5075029;28;20540;-73
2021/12/31 01:22:40;;;;;;;17.90;4.10;;;;;;;12.62;100.00;101644.84;5075213;28;20082;-73
2021/12/31 01:25:06;;;;;;;17.73;4.40;;;;;;;12.62;100.00;101647.50;5074663;28;20040;-73
2021/12/31 01:27:34;;;;;;;17.73;4.57;;;;;;;12.56;100.00;101637.72;5074521;28;20434;-74
2021/12/31 01:30:00;;;;;;;16.42;4.13;;;;;;;12.57;100.00;101634.22;5075059;28;20082;-71
2021/12/31 01:32:26;;;;;;;16.48;4.45;;;;;;;12.61;100.00;101641.31;5074884;28;20021;-72
2021/12/31 01:34:51;;;;;;;15.82;4.30;;;;;;;12.59;100.00;101640.41;5074776;28;20464;-72
2021/12/31 01:37:17;;;;;;;15.93;4.10;;;;;;;12.59;100.00;101645.69;5074882;28;20119;-74
2021/12/31 01:39:42;;;;;;;17.58;4.55;;;;;;;12.56;100.00;101638.59;5074643;28;20028;-72
2021/12/31 01:42:14;;;;;;;16.55;4.28;;;;;;;12.59;100.00;101648.34;5074939;28;20446;-72
2021/12/31 01:44:42;;;;;;;15.77;3.80;;;;;;;12.60;100.00;101643.97;5074761;28;20021;-72
2021/12/31 01:47:12;;;;;;;17.77;4.40;;;;;;;12.55;100.00;101658.06;5074668;28;20085;-71
2021/12/31 01:49:40;;;;;;;16.00;4.20;;;;;;;12.60;100.00;101657.22;5071061;28;20107;-72
2021/12/31 01:52:08;;;;;;;15.70;4.22;;;;;;;12.58;100.00;101656.31;5071017;28;20021;-71
2021/12/31 01:54:35;;;;;;;17.73;4.20;;;;;;;12.64;100.00;101661.66;5070430;28;20047;-71
2021/12/31 01:57:03;;;;;;;17.77;4.40;;;;;;;12.64;100.00;101666.97;5074461;28;20037;-71
2021/12/31 01:59:29;;;;;;;18.95;4.30;;;;;;;12.64;100.00;101669.59;5074332;28;20029;-72
2021/12/31 02:01:56;;;;;;;16.00;4.20;;;;;;;12.65;100.00;101674.06;5074463;28;20485;-71
2021/12/31 02:04:21;;;;;;;17.38;4.07;;;;;;;12.65;100.00;101668.75;5074315;28;20028;-71
2021/12/31 02:06:47;;;;;;;18.55;4.57;;;;;;;12.62;100.00;101668.72;5074170;28;20028;-72
2021/12/31 02:09:13;;;;;;;16.42;4.05;;;;;;;12.63;100.00;101659.91;5074157;28;20040;-72
2021/12/31 02:11:39;;;;;;;19.52;4.22;;;;;;;12.71;100.00;101663.47;5074035;28;20028;-71
2021/12/31 02:14:05;;;;;;;17.85;4.22;;;;;;;12.69;100.00;101676.72;5074366;28;20036;-71
2021/12/31 02:16:31;;;;;;;18.40;4.10;;;;;;;12.64;100.00;101666.97;5074004;28;20081;-71
2021/12/31 02:18:58;;;;;;;17.25;4.03;;;;;;;12.67;100.00;101669.66;5073890;28;20110;-71
2021/12/31 02:21:23;;;;;;;14.90;4.18;;;;;;;12.68;100.00;101672.31;5074078;28;20024;-71
2021/12/31 02:23:55;;;;;;;17.75;3.97;;;;;;;12.67;100.00;101653.75;5073774;28;20032;-72
2021/12/31 02:26:20;;;;;;;19.40;4.53;;;;;;;12.61;100.00;101658.97;5073416;28;20039;-72
2021/12/31 02:28:45;;;;;;;17.50;4.07;;;;;;;12.62;100.00;101660.75;5073832;28;20032;-71
2021/12/31 02:31:11;;;;;;;17.85;4.47;;;;;;;12.62;100.00;101651.03;5074129;28;20025;-71
2021/12/31 02:33:36;;;;;;;17.70;4.30;;;;;;;12.61;100.00;101657.22;5073543;28;20071;-72
2021/12/31 02:36:05;;;;;;;17.70;4.10;;;;;;;12.60;100.00;101657.22;5073709;28;20063;-71
2021/12/31 02:38:30;;;;;;;15.55;4.00;;;;;;;12.65;100.00;101644.88;5073509;28;20028;-72
2021/12/31 02:40:55;;;;;;;16.42;4.03;;;;;;;12.68;100.00;101645.81;5072712;28;20036;-72
2021/12/31 02:43:21;;;;;;;16.98;4.50;;;;;;;12.58;100.00;101645.69;5073641;28;20021;-72
2021/12/31 02:45:47;;;;;;;16.98;4.00;;;;;;;12.59;100.00;101652.78;5073519;28;20051;-72
2021/12/31 02:48:13;;;;;;;17.30;4.40;;;;;;;12.56;100.00;101648.34;5073633;28;20119;-72
2021/12/31 02:50:41;;;;;;;15.90;4.10;;;;;;;12.51;100.00;101645.66;5073593;28;20526;-73
2021/12/31 02:53:11;;;;;;;17.80;4.35;;;;;;;12.58;100.00;101648.34;5069751;28;20036;-71
2021/12/31 02:55:39;;;;;;;19.20;4.40;;;;;;;12.53;100.00;101635.06;5069412;28;20028;-73
2021/12/31 02:58:05;;;;;;;18.02;4.22;;;;;;;12.48;100.00;101645.63;5069356;28;20020;-73
2021/12/31 03:00:32;;;;;;;17.00;4.30;;;;;;;12.45;100.00;101640.28;5073034;28;20098;-72
2021/12/31 03:03:00;;;;;;;19.20;4.68;;;;;;;12.39;100.00;101645.50;5073159;28;20021;-73
2021/12/31 03:05:29;;;;;;;18.52;4.40;;;;;;;12.41;100.00;101642.88;5073211;28;20028;-72
2021/12/31 03:07:56;;;;;;;15.80;4.28;;;;;;;12.40;100.00;101647.31;5073130;28;20066;-73
2021/12/31 03:10:22;;;;;;;18.55;4.20;;;;;;;12.45;100.00;101650.00;5072846;28;20433;-72
2021/12/31 03:12:51;;;;;;;17.00;4.30;;;;;;;12.44;100.00;101638.50;5072964;28;20040;-72
2021/12/31 03:15:17;;;;;;;18.30;4.40;;;;;;;12.41;100.00;101643.78;5073091;28;20375;-71
2021/12/31 03:17:44;;;;;;;16.98;4.28;;;;;;;12.41;100.00;101643.78;5072919;28;20103;-71
2021/12/31 03:20:14;;;;;;;17.88;4.50;;;;;;;12.37;100.00;101642.84;5072811;28;20025;-72
2021/12/31 03:22:40;;;;;;;19.23;4.85;;;;;;;12.32;100.00;101633.06;5072853;28;20422;-71
2021/12/31 03:25:07;;;;;;;17.85;4.50;;;;;;;12.31;100.00;101626.00;5072597;28;20045;-71
2021/12/31 03:27:32;;;;;;;22.23;4.50;;;;;;;12.32;100.00;101627.78;5072818;28;20039;-71
2021/12/31 03:29:58;;;;;;;19.17;4.47;;;;;;;12.28;100.00;101633.94;5072918;28;20021;-71
2021/12/31 03:32:24;;;;;;;17.27;4.47;;;;;;;12.35;100.00;101634.00;5072600;28;20028;-71
2021/12/31 03:34:49;;;;;;;18.77;4.50;;;;;;;12.23;100.00;101619.75;5072715;28;20048;-71
2021/12/31 03:37:14;;;;;;;18.73;4.57;;;;;;;12.25;100.00;101631.25;5072768;28;20082;-71
2021/12/31 03:39:40;;;;;;;21.80;5.57;;;;;;;12.28;100.00;101620.69;5071136;28;20036;-71
2021/12/31 03:42:05;;;;;;;17.98;4.88;;;;;;;12.24;100.00;101617.09;5073000;28;20111;-71
2021/12/31 03:44:31;;;;;;;17.67;4.53;;;;;;;12.27;100.00;101616.25;5072682;28;20467;-71
2021/12/31 03:46:56;;;;;;;17.73;4.60;;;;;;;12.26;100.00;101614.47;5072529;28;20035;-71
2021/12/31 03:49:21;;;;;;;17.60;4.50;;;;;;;12.27;100.00;101603.00;5072680;28;20021;-71
2021/12/31 03:51:46;;;;;;;19.83;4.53;;;;;;;12.26;100.00;101614.47;5072372;28;20021;-71
2021/12/31 03:54:12;;;;;;;19.23;5.28;;;;;;;12.20;100.00;101605.59;5072281;28;20025;-71
2021/12/31 03:56:37;;;;;;;19.02;4.72;;;;;;;12.17;100.00;101609.97;5072770;28;20032;-73
2021/12/31 03:59:02;;;;;;;17.45;4.68;;;;;;;12.14;100.00;101608.16;5072620;28;20017;-72
2021/12/31 04:01:28;;;;;;;18.50;4.90;;;;;;;12.17;100.00;101618.81;5072347;28;20024;-72
2021/12/31 04:03:54;;;;;;;19.27;4.63;;;;;;;12.18;100.00;101615.28;5072581;28;20086;-72
2021/12/31 04:06:21;;;;;;;18.95;4.80;;;;;;;12.16;100.00;101622.34;5072473;28;20479;-71
2021/12/31 04:08:47;;;;;;;18.73;5.38;;;;;;;12.22;100.00;101618.84;5072264;28;20081;-71
2021/12/31 04:11:13;;;;;;;19.85;5.05;;;;;;;12.27;100.00;101619.78;5072327;28;20464;-71
2021/12/31 04:13:39;;;;;;;18.15;4.97;;;;;;;12.25;100.00;101613.59;5072334;28;20067;-71
2021/12/31 04:16:04;;;;;;;17.80;4.93;;;;;;;12.27;100.00;101610.94;5072153;28;20125;-72
2021/12/31 04:18:29;;;;;;;20.38;5.60;;;;;;;12.27;100.00;101619.78;5072488;28;20035;-72
2021/12/31 04:20:57;;;;;;;19.63;5.05;;;;;;;12.27;100.00;101630.38;5072164;28;20051;-72
2021/12/31 04:23:30;;;;;;;19.05;4.88;;;;;;;12.28;100.00;101621.56;5072148;28;20107;-71
2021/12/31 04:25:57;;;;;;;19.67;5.20;;;;;;;12.29;100.00;101627.75;5071974;28;20055;-72
2021/12/31 04:28:25;;;;;;;17.98;5.18;;;;;;;12.28;100.00;101624.22;5072104;28;20037;-71
2021/12/31 04:30:51;;;;;;;20.25;5.20;;;;;;;12.29;100.00;101622.44;5072146;28;20060;-72
2021/12/31 04:33:16;;;;;;;20.02;5.38;;;;;;;12.31;100.00;101621.59;5072588;28;20185;-71
2021/12/31 04:35:42;;;;;;;19.00;5.13;;;;;;;12.33;100.00;101616.31;5072049;28;20024;-71
2021/12/31 04:38:07;;;;;;;18.45;4.97;;;;;;;12.35;100.00;101614.56;5072071;28;20411;-70
2021/12/31 04:40:33;;;;;;;19.92;5.25;;;;;;;12.35;100.00;101603.97;5072144;28;20059;-72
2021/12/31 04:42:58;;;;;;;21.38;5.60;;;;;;;12.29;100.00;101586.25;5071974;28;20100;-71
2021/12/31 04:45:25;;;;;;;18.83;4.95;;;;;;;12.37;100.00;101589.81;5071902;28;20033;-72
2021/12/31 04:47:51;;;;;;;19.73;5.45;;;;;;;12.31;100.00;101592.44;5072174;28;20081;-71
2021/12/31 04:50:16;;;;;;;19.58;5.35;;;;;;;12.28;100.00;101587.09;5071861;28;20039;-72
2021/12/31 04:52:42;;;;;;;19.33;5.28;;;;;;;12.33;100.00;101593.34;5072110;28;20387;-72
2021/12/31 04:55:08;;;;;;;18.35;4.97;;;;;;;12.32;100.00;101569.44;5072067;28;20107;-72
2021/12/31 04:57:33;;;;;;;19.73;5.30;;;;;;;12.32;100.00;101585.34;5071861;28;20016;-72
2021/12/31 04:59:59;;;;;;;19.05;5.18;;;;;;;12.28;100.00;101591.53;5071937;28;20094;-72
2021/12/31 05:02:24;;;;;;;20.17;5.72;;;;;;;12.24;100.00;101602.97;5072015;28;20090;-72
2021/12/31 05:04:49;;;;;;;19.83;5.60;;;;;;;12.21;100.00;101601.16;5075248;28;20032;-72
2021/12/31 05:07:15;;;;;;;18.35;5.13;;;;;;;12.28;100.00;101589.75;5075500;28;20024;-73
2021/12/31 05:09:40;;;;;;;19.73;5.30;;;;;;;12.33;100.00;101596.00;5075305;28;20414;-72
2021/12/31 05:12:06;;;;;;;19.02;5.40;;;;;;;12.33;100.00;101588.03;5075287;28;20039;-72
2021/12/31 05:14:32;;;;;;;18.40;5.22;;;;;;;12.31;100.00;101594.19;5075204;28;20459;-72
2021/12/31 05:16:58;;;;;;;20.25;5.70;;;;;;;12.31;100.00;101599.50;5075134;28;20021;-71
2021/12/31 05:19:24;;;;;;;20.45;5.40;;;;;;;12.23;100.00;101593.22;5075098;28;20028;-72
2021/12/31 05:21:50;;;;;;;18.77;5.20;;;;;;;12.19;100.00;101587.91;5075294;28;20028;-71
2021/12/31 05:24:16;;;;;;;18.90;5.40;;;;;;;12.17;100.00;101581.72;5073847;28;20031;-71
2021/12/31 05:26:42;;;;;;;18.25;5.40;;;;;;;12.13;100.00;101590.50;5074722;28;20163;-71
2021/12/31 05:29:08;;;;;;;15.75;5.20;;;;;;;12.16;100.00;101589.66;5075189;28;20029;-71
2021/12/31 05:31:33;;;;;;;18.23;5.00;;;;;;;12.15;100.00;101588.75;5074850;28;20032;-71
2021/12/31 05:33:58;;;;;;;19.15;5.15;;;;;;;12.13;100.00;101587.84;5074802;28;20029;-71
2021/12/31 05:36:24;;;;;;;19.60;5.53;;;;;;;12.09;100.00;101567.50;5073961;28;20391;-71
2021/12/31 05:38:50;;;;;;;18.85;5.45;;;;;;;12.00;100.00;101563.00;5074748;28;20028;-71
2021/12/31 05:41:16;;;;;;;18.73;4.90;;;;;;;12.08;100.00;101568.34;5074784;28;20033;-71
2021/12/31 05:43:41;;;;;;;18.83;5.55;;;;;;;12.04;100.00;101563.88;5074614;28;20028;-71
2021/12/31 05:46:06;;;;;;;17.42;5.10;;;;;;;11.94;100.00;101564.69;5074714;28;20085;-71
2021/12/31 05:48:32;;;;;;;19.58;5.32;;;;;;;11.88;100.00;101546.03;5074785;28;20021;-71
2021/12/31 05:50:57;;;;;;;20.65;5.22;;;;;;;11.79;100.00;101563.59;5074537;28;20126;-71
2021/12/31 05:53:23;;;;;;;18.83;5.20;;;;;;;11.66;100.00;101536.13;5074678;28;20041;-71
2021/12/31 05:55:48;;;;;;;18.77;4.78;;;;;;;11.68;100.00;101537.03;5074729;28;20021;-71
2021/12/31 05:58:13;;;;;;;19.27;5.03;;;;;;;11.61;100.00;101544.88;5074222;28;20048;-71
2021/12/31 06:00:39;;;;;;;19.80;5.20;;;;;;;11.54;100.00;101549.22;5074461;28;20032;-71
2021/12/31 06:03:04;;;;;;;18.42;4.60;;;;;;;11.56;100.00;101551.88;5074524;28;20050;-70
2021/12/31 06:05:29;;;;;;;18.65;4.82;;;;;;;11.62;100.00;101559.88;5074600;28;20032;-71
2021/12/31 06:07:57;;;;;;;17.40;4.60;;;;;;;11.60;100.00;101556.34;5074488;28;20027;-71
2021/12/31 06:10:24;;;;;;;18.42;4.65;;;;;;;11.44;100.00;101560.56;5074349;28;20025;-71
2021/12/31 06:12:51;;;;;;;19.00;5.00;;;;;;;11.33;100.00;101563.09;5073974;28;20090;-71
2021/12/31 06:15:18;;;;;;;16.83;4.70;;;;;;;11.29;100.00;101556.84;5073129;28;20048;-71
2021/12/31 06:17:44;;;;;;;18.92;4.88;;;;;;;11.25;100.00;101562.09;5074142;28;20025;-71
2021/12/31 06:20:10;;;;;;;16.42;4.78;;;;;;;11.33;100.00;101571.03;5073940;28;20091;-72
2021/12/31 06:22:36;;;;;;;16.15;4.63;;;;;;;11.34;100.00;101571.06;5073900;28;20069;-71
2021/12/31 06:25:03;;;;;;;18.70;4.65;;;;;;;11.24;100.00;101577.09;5073924;28;20024;-72
2021/12/31 06:27:28;;;;;;;18.27;4.90;;;;;;;11.24;100.00;101581.47;5073507;28;20190;-72
2021/12/31 06:29:53;;;;;;;17.20;4.38;;;;;;;11.22;100.00;101583.22;5074022;28;20504;-72
2021/12/31 06:32:18;;;;;;;17.98;4.63;;;;;;;11.13;100.00;101570.75;5073884;28;20048;-72
2021/12/31 06:34:44;;;;;;;17.98;4.95;;;;;;;11.10;100.00;101579.53;5073805;28;20039;-72
2021/12/31 06:37:09;;;;;;;17.48;4.53;;;;;;;11.06;100.00;101569.78;5073914;28;20676;-72
2021/12/31 06:39:35;;;;;;;19.30;5.00;;;;;;;10.97;100.00;101578.47;5073500;28;20029;-72
2021/12/31 06:42:03;;;;;;;17.60;5.22;;;;;;;10.88;100.00;101581.00;5073482;28;20490;-72
2021/12/31 06:44:29;;;;;;;17.20;4.60;;;;;;;10.91;100.00;101590.75;5073590;28;20024;-73
2021/12/31 06:46:55;;;;;;;18.13;5.20;;;;;;;10.90;100.00;101600.41;5073716;28;20473;-72
2021/12/31 06:49:20;;;;;;;20.70;5.47;;;;;;;10.92;100.00;101587.22;5073245;28;20040;-72
2021/12/31 06:51:45;;;;;;;16.52;4.80;;;;;;;10.93;100.00;101589.00;5073795;28;20107;-72
2021/12/31 06:54:11;;;;;;;16.85;4.68;;;;;;;10.89;100.00;101576.59;5055370;28;20035;-71
2021/12/31 06:56:36;;;;;;;17.20;5.13;;;;;;;10.82;100.00;101579.16;5073232;28;20029;-72
2021/12/31 06:59:01;;;;;;;19.25;5.32;;;;;;;10.82;100.00;101581.78;5073268;28;20056;-71
2021/12/31 07:01:27;;;;;;;19.30;5.40;;;;;;;10.74;100.00;101591.34;5073322;28;20103;-71
2021/12/31 07:03:52;;;;;;;17.95;4.90;;;;;;;10.66;100.00;101586.81;5073077;28;20534;-73
2021/12/31 07:06:17;;;;;;;18.67;5.05;;;;;;;10.65;100.00;101604.44;5073431;28;20035;-73
2021/12/31 07:08:45;;;;;;;18.70;5.40;;;;;;;10.61;100.00;101605.25;5073030;28;20024;-72
2021/12/31 07:11:10;;;;;;;16.80;4.90;;;;;;;10.66;100.00;101606.22;5072890;28;20029;-72
2021/12/31 07:13:36;;;;;;;18.80;5.30;;;;;;;10.64;100.00;101602.66;5073063;28;20043;-71
2021/12/31 07:16:02;;;;;;;18.48;5.10;;;;;;;10.63;100.00;101600.91;5072818;28;20379;-71
2021/12/31 07:18:27;;;;;;;18.27;5.40;;;;;;;10.64;100.00;101581.50;5068931;28;20025;-71
2021/12/31 07:20:52;;;;;;;17.45;5.18;;;;;;;10.58;100.00;101589.34;5070611;28;20024;-71
2021/12/31 07:23:20;;;;;;;18.77;5.40;;;;;;;10.57;100.00;101598.13;5071313;28;20020;-72
2021/12/31 07:25:46;;;;;;;18.73;5.40;;;;;;;10.53;100.00;101593.66;5070933;28;20104;-71
2021/12/31 07:28:13;;;;;;;19.05;5.50;;;;;;;10.51;100.00;101598.03;5071814;28;20025;-72
2021/12/31 07:30:39;;;;;;;18.48;5.82;;;;;;;10.46;100.00;101612.06;5069582;28;20490;-71
2021/12/31 07:33:05;;;;;;;22.00;5.82;;;;;;;10.42;100.00;101597.00;5070542;28;20124;-73
2021/12/31 07:35:31;;;;;;;18.85;5.60;;;;;;;10.38;100.00;101595.19;5070309;28;20043;-71
2021/12/31 07:37:58;;;;;;;18.63;5.80;;;;;;;10.35;100.00;101610.09;5070907;28;20033;-71
2021/12/31 07:40:38;;;;;;;18.35;5.50;;;;;;;10.33;100.00;101602.13;5070742;28;20375;-71
2021/12/31 07:43:05;;;;;;;18.75;5.55;;;;;;;10.30;100.00;101610.00;5069635;28;20471;-71
2021/12/31 07:45:30;;;;;;;18.80;5.55;;;;;;;10.27;100.00;101600.25;5070596;28;20494;-70
2021/12/31 07:47:56;;;;;;;19.13;5.60;;;;;;;10.33;100.00;101610.03;5070175;28;20074;-70
2021/12/31 07:50:21;;;;;;;19.52;5.60;;;;;;;10.28;100.00;101607.31;5071213;28;20368;-73
2021/12/31 07:52:46;;;;;;;19.58;5.78;;;;;;;10.33;100.00;101617.97;5069807;28;20031;-74
2021/12/31 07:55:12;;;;;;;18.23;5.32;;;;;;;10.41;100.00;101628.69;5070581;28;20522;-70
2021/12/31 07:57:38;;;;;;;21.05;5.60;;;;;;;10.43;100.00;101630.50;5071126;28;20116;-70
2021/12/31 08:00:05;;;;;;;18.42;5.53;;;;;;;10.44;100.00;101632.31;5070874;28;20028;-71
2021/12/31 08:02:31;;;;;;;19.02;5.50;;;;;;;10.41;100.00;101620.78;5070903;28;20037;-73
2021/12/31 08:04:56;;;;;;;18.73;5.72;;;;;;;10.39;100.00;101633.97;5070894;28;20399;-72
2021/12/31 08:07:21;;;;;;;18.30;5.13;;;;;;;10.44;100.00;101637.59;5070953;28;20025;-72
2021/12/31 08:09:47;;;;;;;19.73;5.50;;;;;;;10.43;100.00;101634.91;5070930;28;20072;-72
2021/12/31 08:12:12;;;;;;;17.55;5.25;;;;;;;10.54;100.00;101625.44;5071201;28;20357;-72
2021/12/31 08:14:37;;;;;;;18.40;5.60;;;;;;;10.56;100.00;101614.88;5070220;28;20418;-72
2021/12/31 08:17:03;;;;;;;20.27;5.80;;;;;;;10.54;100.00;101606.94;5071460;28;20524;-71
2021/12/31 08:19:28;;;;;;;18.50;5.15;;;;;;;10.60;100.00;101611.41;5070263;28;20032;-71
2021/12/31 08:21:54;;;;;;;16.95;5.22;;;;;;;10.64;100.00;101622.06;5070293;28;20024;-71
2021/12/31 08:24:19;;;;;;;18.42;5.15;;;;;;;10.72;100.00;101622.19;5070816;28;20032;-71
2021/12/31 08:26:44;;;;;;;18.63;5.15;;;;;;;10.73;100.00;101621.34;5070717;28;20051;-71
2021/12/31 08:29:12;;;;;;;18.20;5.05;;;;;;;10.78;100.00;101605.53;5071058;28;20024;-71
2021/12/31 08:31:39;;;;;;;17.77;5.05;;;;;;;10.85;100.00;101596.81;5071470;28;20166;-70
2021/12/31 08:34:07;;;;;;;17.02;5.00;;;;;;;10.86;100.00;101592.41;5071567;28;20029;-72
2021/12/31 08:36:32;;;;;;;17.23;5.00;;;;;;;10.90;100.00;101599.53;5071887;28;20111;-71
2021/12/31 08:38:59;;;;;;;18.38;5.00;;;;;;;11.05;100.00;101615.63;5074438;28;20191;-71
2021/12/31 08:41:24;;;;;;;15.63;4.40;;;;;;;11.10;100.00;101613.94;5075419;28;20024;-71
2021/12/31 08:43:50;;;;;;;17.88;4.80;;;;;;;11.12;100.00;101612.19;5075332;28;20033;-70
2021/12/31 08:46:15;;;;;;;18.75;4.80;;;;;;;11.19;100.00;101609.66;5075297;28;20016;-72
2021/12/31 08:48:40;;;;;;;16.95;4.70;;;;;;;11.16;100.00;101600.78;5075613;28;20020;-73
2021/12/31 08:51:06;;;;;;;16.00;4.63;;;;;;;11.26;100.00;101598.28;5075973;28;20048;-71
2021/12/31 08:53:31;;;;;;;17.45;4.82;;;;;;;11.26;100.00;101608.88;5075698;28;20029;-73
2021/12/31 08:55:56;;;;;;;16.20;4.60;;;;;;;11.26;100.00;101567.41;5057508;28;20036;-71
2021/12/31 08:58:22;;;;;;;15.23;4.45;;;;;;;11.29;100.00;101587.75;5075527;28;20052;-71
2021/12/31 09:00:47;;;;;;;17.52;4.65;;;;;;;11.34;100.00;101602.81;5075670;28;20032;-71
2021/12/31 09:03:13;;;;;;;16.63;4.65;;;;;;;11.39;100.00;101578.13;5075542;28;20459;-71
2021/12/31 09:05:38;;;;;;;16.67;4.57;;;;;;;11.37;100.00;101588.72;5071508;28;20468;-72
2021/12/31 09:08:04;;;;;;;14.75;4.35;;;;;;;11.36;100.00;101597.53;5075218;28;20024;-71
2021/12/31 09:10:29;;;;;;;15.90;4.53;;;;;;;11.39;100.00;101587.00;5075078;28;20059;-72
2021/12/31 09:12:56;;;;;;;16.00;4.50;;;;;;;11.40;100.00;101599.38;5075294;28;20024;-71
2021/12/31 09:15:21;;;;;;;15.25;4.18;;;;;;;11.46;100.00;101604.72;5075087;28;20069;-72
2021/12/31 09:17:48;;;;;;;15.98;4.35;;;;;;;11.41;100.00;101614.34;5071510;28;20118;-71
2021/12/31 09:20:14;;;;;;;14.77;4.20;;;;;;;11.39;100.00;101605.53;5072607;28;20463;-70
2021/12/31 09:22:39;;;;;;;14.95;4.32;;;;;;;11.46;100.00;101607.38;5073057;28;20088;-72
2021/12/31 09:25:06;;;;;;;15.52;4.13;;;;;;;11.48;100.00;101613.56;5068790;28;20037;-68
2021/12/31 09:27:32;;;;;;;16.45;4.18;;;;;;;11.52;100.00;101622.47;5073687;28;20449;-72
2021/12/31 09:29:57;;;;;;;15.55;4.10;;;;;;;11.57;100.00;101623.38;5070419;28;20040;-72
2021/12/31 09:32:23;;;;;;;15.18;4.20;;;;;;;11.56;100.00;101623.38;5072854;28;20025;-71
2021/12/31 09:34:48;;;;;;;15.10;4.32;;;;;;;11.60;100.00;101625.19;5073434;28;20056;-71
2021/12/31 09:37:15;;;;;;;16.52;4.40;;;;;;;11.62;100.00;101636.69;5073654;28;20021;-70
2021/12/31 09:39:41;;;;;;;14.52;3.88;;;;;;;11.59;100.00;101639.28;5073377;28;20021;-70
2021/12/31 09:42:07;;;;;;;16.15;4.28;;;;;;;11.59;100.00;101644.59;5072708;28;20032;-70
2021/12/31 09:44:34;;;;;;;15.38;4.30;;;;;;;11.55;100.00;101629.53;5073345;28;20094;-70
2021/12/31 09:47:00;;;;;;;15.15;4.30;;;;;;;11.59;100.00;101660.47;5073437;28;20039;-70
2021/12/31 09:49:25;;;;;;;16.95;4.60;;;;;;;11.57;100.00;101651.63;5073281;28;20371;-70
2021/12/31 09:51:51;;;;;;;15.98;4.00;;;;;;;11.58;100.00;101650.78;5072571;28;20081;-71
2021/12/31 09:54:21;;;;;;;14.65;4.00;;;;;;;11.57;100.00;101641.03;5072306;28;20027;-70
2021/12/31 09:56:47;;;;;;;17.02;4.05;;;;;;;11.63;100.00;101631.41;5073129;28;20107;-70
2021/12/31 09:59:13;;;;;;;14.70;4.13;;;;;;;11.63;100.00;101657.88;5070005;28;20186;-70
2021/12/31 10:01:49;;;;;;;15.68;4.20;;;;;;;11.68;100.00;101648.25;5074240;28;20024;-70
2021/12/31 10:04:14;;;;;;;15.70;4.20;;;;;;;11.66;100.00;101630.56;5070372;28;20028;-70
2021/12/31 10:07:05;;;;;;;16.63;4.40;;;;;;;11.73;100.00;101644.78;5073786;28;20017;-70
2021/12/31 10:09:31;;;;;;;15.52;4.32;;;;;;;11.65;100.00;101650.88;5072151;28;20016;-70
2021/12/31 10:11:57;;;;;;;15.38;4.28;;;;;;;11.65;100.00;101650.00;5073953;28;20035;-70
2021/12/31 10:14:36;;;;;;;15.80;4.30;;;;;;;11.62;100.00;101636.69;5073829;28;20475;-70
2021/12/31 10:17:02;;;;;;;15.73;4.40;;;;;;;11.55;100.00;101638.38;5074252;28;20111;-70
2021/12/31 10:19:28;;;;;;;17.85;4.80;;;;;;;11.54;100.00;101614.53;5073888;28;20449;-71
2021/12/31 10:21:55;;;;;;;15.20;4.32;;;;;;;11.59;100.00;101595.19;5073863;28;20159;-70
2021/12/31 10:24:26;;;;;;;15.63;4.32;;;;;;;11.49;100.00;101623.28;5074033;28;20021;-71
2021/12/31 10:26:54;;;;;;;15.02;4.25;;;;;;;11.39;100.00;101629.34;5073451;28;20055;-72
2021/12/31 10:29:19;;;;;;;16.08;4.13;;;;;;;11.37;100.00;101633.72;5073677;28;20039;-72
2021/12/31 10:31:48;;;;;;;14.65;4.10;;;;;;;11.51;100.00;101625.97;5074237;28;20024;-71
2021/12/31 10:34:37;;;;;;;17.77;4.30;;;;;;;11.61;100.00;101632.28;5073872;28;20174;-71
2021/12/31 10:37:12;;;;;;;15.50;4.32;;;;;;;11.60;100.00;101630.50;5072486;28;20028;-71
2021/12/31 10:39:39;;;;;;;14.75;4.30;;;;;;;11.60;100.00;101634.00;5073381;28;20037;-72
2021/12/31 10:42:06;;;;;;;15.95;4.22;;;;;;;11.63;100.00;101622.56;5073401;28;20527;-72
2021/12/31 10:44:45;;;;;;;18.65;4.50;;;;;;;11.69;100.00;101635.88;5072702;28;20033;-71
2021/12/31 10:47:16;;;;;;;18.15;4.40;;;;;;;11.73;100.00;101647.44;5073660;28;20028;-72
2021/12/31 10:50:10;;;;;;;16.55;4.32;;;;;;;11.82;100.00;101639.59;5073334;28;20017;-71
2021/12/31 10:52:53;;;;;;;15.23;4.22;;;;;;;11.88;100.00;101646.72;5045812;28;20535;-71
2021/12/31 10:55:24;;;;;;;15.88;4.70;;;;;;;11.91;100.00;101658.25;5047835;28;20036;-71
2021/12/31 10:58:01;;;;;;;16.85;4.65;;;;;;;11.94;100.00;101649.47;5051048;28;20047;-72
2021/12/31 11:00:37;;;;;;;17.13;4.53;;;;;;;12.00;100.00;101654.84;5050325;28;20056;-71
2021/12/31 11:03:04;;;;;;;16.38;4.60;;;;;;;12.14;100.00;101645.25;5051073;28;20040;-72
2021/12/31 11:05:29;;;;;;;17.58;4.88;;;;;;;12.21;100.00;101625.91;5051193;28;20084;-71
2021/12/31 11:08:00;;;;;;;17.70;5.07;;;;;;;12.17;100.00;101629.41;5051053;28;20136;-70